createdAt,value
2023-02-11T00:14:36.030Z,3.33
2023-02-11T00:17:10.006Z,3.47
2023-02-11T00:19:39.988Z,3.40
2023-02-11T00:22:10.504Z,3.15
2023-02-11T00:24:41.661Z,3.28
2023-02-11T00:27:12.221Z,3.00
2023-02-11T01:33:58.302Z,2.20
2023-02-11T01:36:34.783Z,2.28
2023-02-11T01:39:30.612Z,2.10
2023-02-11T01:42:22.783Z,2.00
2023-02-11T01:44:57.378Z,2.17
2023-02-11T01:47:28.979Z,2.20
2023-02-11T01:50:07.437Z,2.00
2023-02-11T01:52:43.450Z,2.10
2023-02-11T01:55:34.356Z,2.30
2023-02-11T01:58:07.365Z,2.00
2023-02-11T02:00:41.970Z,2.22
2023-02-11T02:03:19.176Z,2.47
2023-02-11T02:06:09.711Z,2.97
2023-02-11T02:09:02.472Z,2.53
2023-02-11T02:11:33.650Z,2.38
2023-02-11T02:14:20.390Z,2.30
2023-02-11T02:17:45.005Z,2.67
2023-02-11T02:20:41.842Z,2.42
2023-02-11T02:23:37.209Z,2.30
2023-02-11T02:26:52.563Z,2.10
2023-02-11T02:29:51.844Z,2.33
2023-02-11T02:33:05.755Z,2.60
2023-02-11T02:36:22.087Z,2.08
2023-02-11T02:38:56.731Z,2.60
2023-02-11T02:41:33.782Z,2.80
2023-02-11T02:44:14.963Z,3.10
2023-02-11T02:46:45.378Z,3.90
2023-02-11T02:49:19.638Z,5.13
2023-02-11T02:52:01.978Z,4.07
2023-02-11T02:54:34.818Z,4.15
2023-02-11T02:57:50.301Z,4.85
2023-02-11T03:00:36.153Z,4.00
2023-02-11T03:03:25.484Z,4.45
2023-02-11T03:06:18.044Z,4.25
2023-02-11T03:09:03.608Z,4.65
2023-02-11T03:11:36.851Z,5.30
2023-02-11T03:14:13.091Z,5.63
2023-02-11T03:16:46.769Z,4.93
2023-02-11T03:19:28.355Z,5.10
2023-02-11T03:21:58.971Z,5.53
2023-02-11T03:24:37.010Z,5.32
2023-02-11T03:27:47.899Z,5.68
2023-02-11T03:30:25.464Z,5.35
2023-02-11T03:33:53.766Z,5.93
2023-02-11T03:36:19.560Z,5.95
2023-02-11T03:39:19.057Z,6.38
2023-02-11T03:41:53.493Z,6.97
2023-02-11T03:44:27.108Z,6.93
2023-02-11T03:46:58.359Z,6.38
2023-02-11T03:49:31.154Z,6.47
2023-02-11T03:52:05.119Z,6.75
2023-02-11T03:54:41.115Z,7.13
2023-02-11T03:57:20.616Z,7.20
2023-02-11T04:00:05.081Z,5.97
2023-02-11T04:02:43.118Z,6.90
2023-02-11T04:05:17.087Z,6.30
2023-02-11T04:07:47.508Z,6.55
2023-02-11T04:10:19.187Z,7.68
2023-02-11T04:12:50.317Z,7.32
2023-02-11T04:15:22.457Z,7.18
2023-02-11T04:17:54.239Z,7.60
2023-02-11T04:20:24.595Z,7.10
2023-02-11T04:22:54.885Z,7.57
2023-02-11T04:25:26.043Z,7.75
2023-02-11T04:27:56.365Z,7.40
2023-02-11T04:30:28.403Z,7.32
2023-02-11T04:33:01.934Z,7.57
2023-02-11T04:35:32.816Z,7.47
2023-02-11T04:38:02.953Z,8.57
2023-02-11T04:40:33.566Z,7.65
2023-02-11T04:43:03.721Z,7.43
2023-02-11T04:45:43.886Z,7.45
2023-02-11T04:48:15.731Z,7.88
2023-02-11T04:50:46.044Z,7.13
2023-02-11T04:53:16.068Z,7.60
2023-02-11T04:55:48.160Z,7.68
2023-02-11T04:58:20.628Z,7.47
2023-02-11T05:01:00.769Z,7.93
2023-02-11T05:03:31.818Z,7.45
2023-02-11T05:06:01.910Z,7.60
2023-02-11T05:08:32.640Z,8.02
2023-02-11T05:11:04.475Z,7.60
2023-02-11T05:13:36.672Z,7.78
2023-02-11T05:16:17.831Z,8.02
2023-02-11T05:18:49.652Z,8.43
2023-02-11T05:21:21.857Z,8.18
2023-02-11T05:23:52.618Z,8.32
2023-02-11T05:26:22.923Z,7.93
2023-02-11T05:28:54.098Z,8.90
2023-02-11T05:31:26.069Z,7.85
2023-02-11T05:33:57.301Z,7.95
2023-02-11T05:36:27.797Z,7.57
2023-02-11T05:38:57.847Z,8.20
2023-02-11T05:41:44.190Z,8.18
2023-02-11T05:44:15.573Z,7.63
2023-02-11T05:46:46.788Z,6.47
2023-02-11T05:49:38.045Z,7.68
2023-02-11T05:52:08.650Z,7.50
2023-02-11T05:54:59.406Z,8.15
2023-02-11T05:57:30.588Z,7.28
2023-02-11T06:00:17.003Z,8.55
2023-02-11T06:02:48.141Z,8.43
2023-02-11T06:05:21.871Z,8.10
2023-02-11T06:07:52.918Z,7.85
2023-02-11T06:10:24.664Z,8.82
2023-02-11T06:12:55.225Z,8.20
2023-02-11T06:15:26.224Z,8.27
2023-02-11T06:17:56.669Z,7.53
2023-02-11T06:20:27.141Z,7.78
2023-02-11T06:22:58.389Z,8.00
2023-02-11T06:28:12.128Z,8.15
2023-02-11T06:30:44.103Z,7.55
2023-02-11T06:33:14.403Z,7.32
2023-02-11T06:36:14.300Z,7.57
2023-02-11T06:38:45.486Z,7.07
2023-02-11T06:41:17.331Z,7.78
2023-02-11T06:43:49.132Z,6.85
2023-02-11T06:46:42.407Z,7.28
2023-02-11T06:49:12.933Z,7.18
2023-02-11T06:51:44.331Z,7.22
2023-02-11T06:54:16.216Z,6.97
2023-02-11T06:56:48.368Z,6.57
2023-02-11T06:59:22.413Z,6.75
2023-02-11T07:01:52.701Z,7.00
2023-02-11T07:04:26.982Z,6.70
2023-02-11T07:06:58.691Z,6.78
2023-02-11T07:09:29.229Z,6.72
2023-02-11T07:12:00.317Z,6.60
2023-02-11T07:14:30.728Z,6.60
2023-02-11T07:17:02.011Z,6.53
2023-02-11T07:19:32.515Z,6.55
2023-02-11T07:22:03.129Z,7.10
2023-02-11T07:24:34.960Z,6.45
2023-02-11T07:27:06.061Z,6.47
2023-02-11T07:29:38.931Z,6.53
2023-02-11T07:32:10.478Z,7.00
2023-02-11T07:34:41.756Z,6.85
2023-02-11T07:37:12.409Z,6.43
2023-02-11T07:39:42.445Z,7.00
2023-02-11T07:42:14.012Z,6.35
2023-02-11T07:44:46.684Z,6.53
2023-02-11T07:47:19.386Z,6.28
2023-02-11T07:49:50.191Z,5.90
2023-02-11T07:52:20.886Z,6.35
2023-02-11T07:54:51.140Z,6.13
2023-02-11T07:57:21.273Z,5.95
2023-02-11T07:59:52.785Z,6.07
2023-02-11T08:05:07.362Z,6.32
2023-02-11T08:07:37.538Z,6.72
2023-02-11T08:10:16.980Z,5.95
2023-02-11T08:12:47.644Z,6.07
2023-02-11T08:15:17.699Z,5.90
2023-02-11T08:17:47.885Z,6.00
2023-02-11T08:20:19.148Z,6.07
2023-02-11T08:22:49.583Z,6.15
2023-02-11T08:25:19.690Z,6.20
2023-02-11T08:27:49.909Z,5.97
2023-02-11T08:30:19.938Z,6.25
2023-02-11T08:32:49.861Z,5.82
2023-02-11T08:35:19.939Z,5.82
2023-02-11T08:37:51.122Z,5.85
2023-02-11T08:40:22.229Z,6.18
2023-02-11T08:42:53.202Z,5.90
2023-02-11T08:45:24.831Z,5.90
2023-02-11T08:48:04.221Z,6.03
2023-02-11T08:50:34.713Z,5.40
2023-02-11T08:53:04.736Z,6.05
2023-02-11T08:55:35.373Z,6.00
2023-02-11T08:58:18.093Z,6.15
2023-02-11T09:00:50.586Z,6.07
2023-02-11T09:03:21.803Z,6.03
2023-02-11T09:05:55.514Z,6.20
2023-02-11T09:08:26.690Z,5.90
2023-02-11T09:10:59.287Z,5.80
2023-02-11T09:13:29.864Z,5.72
2023-02-11T09:16:02.010Z,5.65
2023-02-11T09:18:33.039Z,6.47
2023-02-11T09:21:09.150Z,5.53
2023-02-11T09:23:39.581Z,6.00
2023-02-11T09:26:17.174Z,5.75
2023-02-11T09:28:49.668Z,5.55
2023-02-11T09:31:23.049Z,5.13
2023-02-11T09:33:57.494Z,5.95
2023-02-11T09:36:30.336Z,5.13
2023-02-11T09:39:03.552Z,5.30
2023-02-11T09:41:37.235Z,4.63
2023-02-11T09:44:12.116Z,4.57
2023-02-11T09:46:44.656Z,4.53
2023-02-11T09:49:23.742Z,4.60
2023-02-11T09:52:05.588Z,4.68
2023-02-11T09:57:38.784Z,4.75
2023-02-11T10:00:39.216Z,4.63
2023-02-11T10:03:18.823Z,5.00
2023-02-11T10:06:14.093Z,4.88
2023-02-11T10:09:03.958Z,5.05
2023-02-11T10:11:45.798Z,5.18
2023-02-11T10:14:44.632Z,5.38
2023-02-11T10:20:33.220Z,5.13
2023-02-11T10:23:18.522Z,5.25
2023-02-11T10:25:52.322Z,4.70
2023-02-11T10:28:26.223Z,5.25
2023-02-11T10:31:16.994Z,4.90
2023-02-11T10:34:22.880Z,4.65
2023-02-11T10:36:53.996Z,17.67
2023-02-11T10:39:33.239Z,6.53
2023-02-11T10:42:07.718Z,4.30
2023-02-11T10:45:04.057Z,4.93
2023-02-11T10:47:45.695Z,4.47
2023-02-11T10:50:29.331Z,4.32
2023-02-11T10:53:25.848Z,4.30
2023-02-11T10:55:58.763Z,7.82
2023-02-11T10:58:47.700Z,3.97
2023-02-11T11:01:24.746Z,4.03
2023-02-11T11:04:01.412Z,3.65
2023-02-11T11:06:47.537Z,3.42
2023-02-11T11:09:46.985Z,4.50
2023-02-11T11:12:48.691Z,5.32
2023-02-11T11:15:33.443Z,3.78
2023-02-11T11:18:29.172Z,2.63
2023-02-11T11:21:03.934Z,3.47
2023-02-11T11:23:37.122Z,3.30
2023-02-11T11:26:08.496Z,3.22
2023-02-11T11:28:56.014Z,2.70
2023-02-11T11:31:34.366Z,2.70
2023-02-11T11:34:38.296Z,2.67
2023-02-11T11:37:34.484Z,2.67
2023-02-11T11:40:11.436Z,2.58
2023-02-11T11:42:42.599Z,2.60
2023-02-11T11:45:24.593Z,2.90
2023-02-11T11:51:13.147Z,5.43
2023-02-11T11:54:04.963Z,2.60
2023-02-11T11:57:21.208Z,4.10
2023-02-11T12:00:01.718Z,4.63
2023-02-11T12:02:54.488Z,5.50
2023-02-11T12:05:51.860Z,5.28
2023-02-11T12:08:58.598Z,5.13
2023-02-11T12:11:50.914Z,4.25
2023-02-11T12:14:42.161Z,6.22
2023-02-11T12:17:40.659Z,6.43
2023-02-11T12:20:34.781Z,4.60
2023-02-11T12:23:20.956Z,4.78
2023-02-11T12:26:03.531Z,5.32
2023-02-11T12:29:00.699Z,5.57
2023-02-11T12:31:47.006Z,7.40
2023-02-11T12:34:51.122Z,6.72
2023-02-11T12:37:53.300Z,4.95
2023-02-11T12:40:53.377Z,6.32
2023-02-11T12:43:39.391Z,6.15
2023-02-11T12:46:48.100Z,9.25
2023-02-11T12:49:18.446Z,4.20
2023-02-11T12:52:22.605Z,5.55
2023-02-11T12:55:08.255Z,5.28
2023-02-11T12:57:43.804Z,6.43
2023-02-11T13:00:33.438Z,5.82
2023-02-11T13:03:08.310Z,4.53
2023-02-11T13:06:01.820Z,5.65
2023-02-11T13:08:45.030Z,5.68
2023-02-11T13:11:53.209Z,7.85
2023-02-11T13:14:42.400Z,8.85
2023-02-11T13:17:31.133Z,10.10
2023-02-11T13:20:16.395Z,16.58
2023-02-11T13:22:59.890Z,7.43
2023-02-11T13:25:45.135Z,9.98
2023-02-11T13:28:42.485Z,8.02
2023-02-11T13:31:15.531Z,4.70
2023-02-11T13:33:47.236Z,6.22
2023-02-11T13:36:26.630Z,5.43
2023-02-11T13:39:07.969Z,4.68
2023-02-11T13:41:43.474Z,4.07
2023-02-11T13:44:13.523Z,5.05
2023-02-11T13:47:11.410Z,8.90
2023-02-11T13:49:43.912Z,16.00
2023-02-11T13:52:39.150Z,7.43
2023-02-11T13:55:30.803Z,5.00
2023-02-11T13:58:11.561Z,4.38
2023-02-11T14:00:41.984Z,5.88
2023-02-11T14:03:35.970Z,4.45
2023-02-11T14:06:29.320Z,4.95
2023-02-11T14:09:14.308Z,4.35
2023-02-11T14:11:48.480Z,4.78
2023-02-11T14:14:38.356Z,5.53
2023-02-11T14:17:09.359Z,4.25
2023-02-11T14:19:47.394Z,4.60
2023-02-11T14:22:25.851Z,5.13
2023-02-11T14:25:08.084Z,4.68
2023-02-11T14:28:19.854Z,4.68
2023-02-11T14:30:52.842Z,4.53
2023-02-11T14:33:41.242Z,5.45
2023-02-11T14:36:45.025Z,5.95
2023-02-11T14:39:36.461Z,4.63
2023-02-11T14:42:16.895Z,5.13
2023-02-11T14:44:50.299Z,4.20
2023-02-11T14:47:27.908Z,4.38
2023-02-11T14:50:10.042Z,4.32
2023-02-11T14:52:41.648Z,5.25
2023-02-11T14:55:29.313Z,4.82
2023-02-11T15:00:53.878Z,4.00
2023-02-11T15:03:39.820Z,4.30
2023-02-11T15:06:30.530Z,4.18
2023-02-11T15:09:30.187Z,5.78
2023-02-11T15:12:00.990Z,6.80
2023-02-11T15:14:34.425Z,4.75
2023-02-11T15:17:19.454Z,4.50
2023-02-11T15:19:54.796Z,4.70
2023-02-11T15:22:26.959Z,4.78
2023-02-11T15:25:53.175Z,6.57
2023-02-11T15:28:29.143Z,4.50
2023-02-11T15:31:15.324Z,3.63
2023-02-11T15:33:46.775Z,8.77
2023-02-11T15:36:18.855Z,6.63
2023-02-11T15:39:30.805Z,7.90
2023-02-11T15:42:20.238Z,6.97
2023-02-11T15:44:56.549Z,7.80
2023-02-11T15:47:27.349Z,6.82
2023-02-11T15:49:58.088Z,12.13
2023-02-11T15:52:30.102Z,9.90
2023-02-11T15:55:02.864Z,10.65
2023-02-11T15:57:34.517Z,20.20
2023-02-11T16:00:09.206Z,14.63
2023-02-11T16:02:52.411Z,4.60
2023-02-11T16:05:39.281Z,13.52
2023-02-11T16:08:31.641Z,8.13
2023-02-11T16:11:56.272Z,8.00
2023-02-11T16:14:31.186Z,12.57
2023-02-11T16:17:09.938Z,5.90
2023-02-11T16:22:40.292Z,5.20
2023-02-11T16:25:22.710Z,5.50
2023-02-11T16:27:56.647Z,6.20
2023-02-11T16:30:40.601Z,4.47
2023-02-11T16:33:16.327Z,6.68
2023-02-11T16:35:49.903Z,6.00
2023-02-11T16:38:24.409Z,4.18
2023-02-11T16:40:57.241Z,4.30
2023-02-11T16:43:28.549Z,4.15
2023-02-11T16:46:00.724Z,5.03
2023-02-11T16:48:38.912Z,5.10
2023-02-11T16:51:32.249Z,4.03
2023-02-11T16:54:02.655Z,4.25
2023-02-11T16:56:34.113Z,5.28
2023-02-11T16:59:05.446Z,4.18
2023-02-11T17:01:36.242Z,4.75
2023-02-11T17:04:07.452Z,9.45
2023-02-11T17:06:38.570Z,7.03
2023-02-11T17:09:09.972Z,5.13
2023-02-11T17:11:43.079Z,4.72
2023-02-11T17:14:13.949Z,3.72
2023-02-11T17:16:45.454Z,4.75
2023-02-11T17:19:19.353Z,4.00
2023-02-11T17:21:53.597Z,3.65
2023-02-11T17:24:25.485Z,3.95
2023-02-11T17:26:56.354Z,4.80
2023-02-11T17:29:28.504Z,4.50
2023-02-11T17:31:59.513Z,3.83
2023-02-11T17:34:32.052Z,7.97
2023-02-11T17:37:04.535Z,3.90
2023-02-11T17:39:34.921Z,3.95
2023-02-11T17:42:09.094Z,3.55
2023-02-11T17:44:40.120Z,4.82
2023-02-11T17:47:15.217Z,3.30
2023-02-11T17:49:46.391Z,3.97
2023-02-11T17:52:20.793Z,3.92
2023-02-11T17:55:08.946Z,3.03
2023-02-11T17:57:50.115Z,3.17
2023-02-11T18:00:21.059Z,3.42
2023-02-11T18:02:51.360Z,3.60
2023-02-11T18:05:21.806Z,3.05
2023-02-11T18:07:53.315Z,4.03
2023-02-11T18:10:24.142Z,2.90
2023-02-11T18:12:55.299Z,2.67
2023-02-11T18:15:25.727Z,3.65
2023-02-11T18:17:58.649Z,3.72
2023-02-11T18:20:31.881Z,2.75
2023-02-11T18:23:03.205Z,3.20
2023-02-11T18:25:39.466Z,3.78
2023-02-11T18:28:10.311Z,2.85
2023-02-11T18:30:40.659Z,4.07
2023-02-11T18:33:15.276Z,2.67
2023-02-11T18:35:47.428Z,2.85
2023-02-11T18:38:18.015Z,3.38
2023-02-11T18:40:51.767Z,2.90
2023-02-11T18:43:24.431Z,4.75
2023-02-11T18:45:55.053Z,4.45
2023-02-11T18:48:29.872Z,3.67
2023-02-11T18:51:20.301Z,3.55
2023-02-11T18:56:47.313Z,3.30
2023-02-11T18:59:18.389Z,3.15
2023-02-11T19:01:48.523Z,3.97
2023-02-11T19:04:21.982Z,3.13
2023-02-11T19:07:04.528Z,3.38
2023-02-11T19:09:34.779Z,3.20
2023-02-11T19:12:06.533Z,3.13
2023-02-11T19:14:38.406Z,3.83
2023-02-11T19:17:12.161Z,3.72
2023-02-11T19:19:42.765Z,4.30
2023-02-11T19:22:21.751Z,3.55
2023-02-11T19:24:53.864Z,3.72
2023-02-11T19:27:25.090Z,3.33
2023-02-11T19:29:55.871Z,4.40
2023-02-11T19:32:28.172Z,3.03
2023-02-11T19:35:09.197Z,3.45
2023-02-11T19:37:41.199Z,2.72
2023-02-11T19:40:13.706Z,4.05
2023-02-11T19:42:56.579Z,3.53
2023-02-11T19:45:29.770Z,4.28
2023-02-11T19:48:04.088Z,4.10
2023-02-11T19:50:36.189Z,3.83
2023-02-11T19:53:12.354Z,3.72
2023-02-11T19:55:43.527Z,2.45
2023-02-11T19:58:14.059Z,3.22
2023-02-11T20:00:45.930Z,2.75
2023-02-11T20:03:17.569Z,2.22
2023-02-11T20:05:50.229Z,2.30
2023-02-11T20:08:20.633Z,3.60
2023-02-11T20:10:51.240Z,2.60
2023-02-11T20:13:22.331Z,2.45
2023-02-11T20:15:53.294Z,2.47
2023-02-11T20:18:27.232Z,2.88
2023-02-11T20:20:58.088Z,2.55
2023-02-11T20:23:37.297Z,2.95
2023-02-11T20:26:15.549Z,2.35
2023-02-11T20:28:46.974Z,3.30
2023-02-11T20:31:18.369Z,2.00
2023-02-11T20:34:03.695Z,2.50
2023-02-11T20:36:40.380Z,2.33
2023-02-11T20:39:13.335Z,2.40
2023-02-11T20:41:44.548Z,3.05
2023-02-11T20:44:16.977Z,2.58
2023-02-11T20:46:48.067Z,2.20
2023-02-11T20:49:23.223Z,2.60
2023-02-11T20:51:57.222Z,3.80
2023-02-11T20:54:32.576Z,3.13
2023-02-11T20:57:03.008Z,2.58
2023-02-11T20:59:37.780Z,2.75
2023-02-11T21:02:08.177Z,2.88
2023-02-11T21:04:40.457Z,3.55
2023-02-11T21:07:11.585Z,4.00
2023-02-11T21:09:42.478Z,2.53
2023-02-11T21:12:12.836Z,2.20
2023-02-11T21:14:44.079Z,2.92
2023-02-11T21:17:14.764Z,2.75
2023-02-11T21:19:46.096Z,2.85
2023-02-11T21:22:19.414Z,3.17
2023-02-11T21:24:56.238Z,3.28
2023-02-11T21:27:33.670Z,2.53
2023-02-11T21:30:04.149Z,2.63
2023-02-11T21:32:37.343Z,3.50
2023-02-11T21:35:08.987Z,2.50
2023-02-11T21:37:39.313Z,3.35
2023-02-11T21:40:10.009Z,3.20
2023-02-11T21:42:40.335Z,3.75
2023-02-11T21:45:12.758Z,3.90
2023-02-11T21:47:43.156Z,3.30
2023-02-11T21:50:13.474Z,3.70
2023-02-11T21:52:45.132Z,3.35
2023-02-11T21:55:36.733Z,4.10
2023-02-11T21:58:10.264Z,3.90
2023-02-11T22:00:41.795Z,4.05
2023-02-11T22:03:32.894Z,4.63
2023-02-11T22:06:08.252Z,4.68
2023-02-11T22:08:39.400Z,4.60
2023-02-11T22:11:13.164Z,4.32
2023-02-11T22:13:44.065Z,4.50
2023-02-11T22:16:27.670Z,4.95
2023-02-11T22:21:54.914Z,4.30
2023-02-11T22:24:25.325Z,4.95
2023-02-11T22:26:55.465Z,3.95
2023-02-11T22:29:26.610Z,4.85
2023-02-11T22:32:07.351Z,5.30
2023-02-11T22:35:00.861Z,5.03
2023-02-11T22:37:31.508Z,4.50
2023-02-11T22:40:02.783Z,3.75
2023-02-11T22:42:33.950Z,4.32
2023-02-11T22:45:04.637Z,4.40
2023-02-11T22:47:36.232Z,5.32
2023-02-11T22:50:10.198Z,3.38
2023-02-11T22:52:40.943Z,4.22
2023-02-11T22:55:11.931Z,5.20
2023-02-11T22:58:07.714Z,5.20
2023-02-11T23:00:43.214Z,5.10
2023-02-11T23:03:14.878Z,6.40
2023-02-11T23:05:49.677Z,5.63
2023-02-11T23:08:43.574Z,5.00
2023-02-11T23:11:26.495Z,5.38
2023-02-11T23:13:58.675Z,5.93
2023-02-11T23:16:34.676Z,8.57
2023-02-11T23:19:18.574Z,8.10
2023-02-11T23:24:39.093Z,5.80
2023-02-11T23:27:09.873Z,5.65
2023-02-11T23:29:40.109Z,6.32
2023-02-11T23:32:30.305Z,6.00
2023-02-11T23:35:02.357Z,6.78
2023-02-11T23:37:34.623Z,7.05
2023-02-11T23:40:09.112Z,6.57
2023-02-11T23:42:39.360Z,6.95
2023-02-11T23:45:10.542Z,8.30
2023-02-11T23:47:42.479Z,8.23
2023-02-11T23:50:24.371Z,8.55
2023-02-11T23:52:54.821Z,7.32
2023-02-11T23:55:26.952Z,7.80
2023-02-11T23:58:07.934Z,8.00
